Time;durP1;ratioP1;P1;durP2;ratioP2;P2;SDS_P1;SDS_P2;PMS_P1;PMS_P2;Temp;Humidity;BMP_temperature;BMP_pressure;BME280_temperature;BME280_humidity;BME280_pressure;Samples;Min_cycle;Max_cycle;Signal;HPM_P1;HPM_P2
2022/09/15 00:00:44;;;;;;;41.93;27.50;;;14.60;99.90;;;;;;4974393;28;20618;-69
2022/09/15 00:03:09;;;;;;;42.77;27.00;;;14.60;99.90;;;;;;4974204;28;20554;-69
2022/09/15 00:05:35;;;;;;;46.30;26.93;;;14.60;99.90;;;;;;4973953;28;20180;-69
2022/09/15 00:08:01;;;;;;;41.57;28.40;;;14.60;99.90;;;;;;4974074;28;20262;-69
2022/09/15 00:10:27;;;;;;;45.10;28.03;;;14.60;99.90;;;;;;4973881;28;20234;-69
2022/09/15 00:12:54;;;;;;;44.80;27.73;;;14.60;99.90;;;;;;4974546;28;20168;-69
2022/09/15 00:15:21;;;;;;;46.30;29.00;;;14.60;99.90;;;;;;4974060;28;20243;-69
2022/09/15 00:17:49;;;;;;;42.23;28.33;;;14.70;99.90;;;;;;4974282;28;20251;-69
2022/09/15 00:20:16;;;;;;;46.10;28.53;;;14.60;99.90;;;;;;4973607;28;20178;-69
2022/09/15 00:22:42;;;;;;;43.53;27.63;;;14.60;99.90;;;;;;4972980;28;20377;-69
2022/09/15 00:25:08;;;;;;;42.70;28.30;;;14.50;99.90;;;;;;4974095;28;20176;-69
2022/09/15 00:27:34;;;;;;;43.40;28.27;;;14.60;99.90;;;;;;4974017;28;20582;-69
2022/09/15 00:30:00;;;;;;;44.07;28.60;;;14.50;99.90;;;;;;4973891;28;20211;-68
2022/09/15 00:32:26;;;;;;;47.50;30.10;;;14.50;99.90;;;;;;4974018;28;20180;-69
2022/09/15 00:34:52;;;;;;;48.20;29.13;;;14.50;99.90;;;;;;4973475;28;20176;-70
2022/09/15 00:37:18;;;;;;;52.17;31.03;;;14.50;99.90;;;;;;4973733;28;20221;-70
2022/09/15 00:39:43;;;;;;;51.27;31.47;;;14.50;99.90;;;;;;4973586;28;20688;-69
2022/09/15 00:42:15;;;;;;;49.93;31.30;;;14.40;99.90;;;;;;4973612;28;20677;-69
2022/09/15 00:44:52;;;;;;;48.50;30.33;;;14.40;99.90;;;;;;4973538;28;20229;-69
2022/09/15 00:47:22;;;;;;;49.37;31.40;;;14.30;99.90;;;;;;4973267;28;20172;-69
2022/09/15 00:49:53;;;;;;;49.03;30.67;;;14.20;99.90;;;;;;4973365;28;20269;-69
2022/09/15 00:52:31;;;;;;;48.17;30.77;;;14.20;99.90;;;;;;4973537;28;20172;-69
2022/09/15 00:54:59;;;;;;;47.57;30.97;;;14.10;99.90;;;;;;4973703;28;20184;-69
2022/09/15 00:57:42;;;;;;;47.80;30.90;;;14.20;99.90;;;;;;4973614;28;20259;-69
2022/09/15 01:00:11;;;;;;;54.50;32.40;;;14.20;99.90;;;;;;4973356;28;20172;-70
2022/09/15 01:02:39;;;;;;;52.83;31.30;;;14.20;99.90;;;;;;4973094;28;20199;-69
2022/09/15 01:05:09;;;;;;;53.57;32.17;;;14.30;99.90;;;;;;4972176;28;20172;-69
2022/09/15 01:07:39;;;;;;;51.93;31.77;;;14.20;99.90;;;;;;4973384;28;20192;-69
2022/09/15 01:10:13;;;;;;;55.23;31.47;;;14.20;99.90;;;;;;4973287;28;20211;-68
2022/09/15 01:12:40;;;;;;;58.37;33.73;;;14.20;99.90;;;;;;4971903;28;20184;-68
2022/09/15 01:15:06;;;;;;;60.53;35.40;;;14.20;99.90;;;;;;4973029;28;20180;-69
2022/09/15 01:17:52;;;;;;;56.03;34.17;;;14.30;99.90;;;;;;4972893;28;20184;-68
2022/09/15 01:20:39;;;;;;;55.13;33.07;;;14.20;99.90;;;;;;4971916;28;20186;-69
2022/09/15 01:23:19;;;;;;;52.07;32.07;;;14.20;99.90;;;;;;4973004;28;20207;-69
2022/09/15 01:26:00;;;;;;;54.87;32.67;;;14.10;99.90;;;;;;4973258;28;20197;-69
2022/09/15 01:28:44;;;;;;;55.07;34.20;;;14.00;99.90;;;;;;4971635;28;20511;-69
2022/09/15 01:31:28;;;;;;;55.10;33.40;;;14.10;99.90;;;;;;4972535;28;20275;-69
2022/09/15 01:34:18;;;;;;;58.60;33.63;;;14.00;99.90;;;;;;4973051;28;20188;-69
2022/09/15 01:36:54;;;;;;;62.50;35.73;;;14.10;99.90;;;;;;4973018;28;20176;-69
2022/09/15 01:39:27;;;;;;;62.13;36.63;;;14.10;99.90;;;;;;4971573;28;20183;-69
2022/09/15 01:42:05;;;;;;;65.17;38.07;;;14.10;99.90;;;;;;4972555;28;20628;-69
2022/09/15 01:44:44;;;;;;;64.60;36.43;;;14.00;99.90;;;;;;4972771;28;20172;-69
2022/09/15 01:47:13;;;;;;;60.30;36.00;;;14.00;99.90;;;;;;4972511;28;20176;-69
2022/09/15 01:49:59;;;;;;;59.47;35.03;;;14.00;99.90;;;;;;4972826;28;20267;-69
2022/09/15 01:52:26;;;;;;;64.57;36.83;;;14.00;99.90;;;;;;4972639;28;20251;-69
2022/09/15 01:54:58;;;;;;;57.53;35.83;;;13.90;99.90;;;;;;4972760;28;20178;-68
2022/09/15 01:57:25;;;;;;;69.10;38.30;;;13.90;99.90;;;;;;4971802;28;20204;-68
2022/09/15 01:59:54;;;;;;;72.20;37.20;;;14.00;99.90;;;;;;4972178;28;20173;-68
2022/09/15 02:02:26;;;;;;;68.97;37.10;;;14.00;99.90;;;;;;4972684;28;20188;-68
2022/09/15 02:04:57;;;;;;;61.17;36.07;;;14.00;99.90;;;;;;4972425;28;20190;-68
2022/09/15 02:07:44;;;;;;;59.57;34.90;;;13.90;99.90;;;;;;4972529;28;20180;-70
2022/09/15 02:10:31;;;;;;;56.57;34.37;;;13.80;99.90;;;;;;4972220;28;20215;-68
2022/09/15 02:13:18;;;;;;;60.33;34.83;;;13.80;99.90;;;;;;4972291;28;20168;-69
2022/09/15 02:15:47;;;;;;;59.37;34.57;;;13.80;99.90;;;;;;4971818;28;20212;-68
2022/09/15 02:18:21;;;;;;;55.80;33.27;;;13.90;99.90;;;;;;4972338;28;20173;-68
2022/09/15 02:21:02;;;;;;;63.77;34.07;;;14.00;99.90;;;;;;4972172;28;20171;-69
2022/09/15 02:23:31;;;;;;;55.53;32.97;;;14.00;99.90;;;;;;4972182;28;20171;-69
2022/09/15 02:26:04;;;;;;;60.23;33.43;;;14.00;99.90;;;;;;4972147;28;20172;-69
2022/09/15 02:28:35;;;;;;;60.43;32.77;;;14.10;99.90;;;;;;4972204;28;20277;-70
2022/09/15 02:31:02;;;;;;;59.40;33.93;;;14.10;99.90;;;;;;4971634;28;20279;-69
2022/09/15 02:33:34;;;;;;;59.20;33.57;;;14.10;99.90;;;;;;4972053;28;20208;-69
2022/09/15 02:36:01;;;;;;;54.63;31.33;;;14.10;99.90;;;;;;4971867;28;20168;-69
2022/09/15 02:38:29;;;;;;;51.90;31.53;;;14.10;99.90;;;;;;4971873;28;20172;-69
2022/09/15 02:40:55;;;;;;;52.00;30.93;;;14.20;99.90;;;;;;4971719;28;20194;-69
2022/09/15 02:43:22;;;;;;;51.43;29.30;;;14.20;99.90;;;;;;4970218;28;20245;-69
2022/09/15 02:45:48;;;;;;;46.60;28.80;;;14.20;99.90;;;;;;4972335;28;20256;-70
2022/09/15 02:48:14;;;;;;;46.37;28.63;;;14.20;99.90;;;;;;4971681;28;20255;-69
2022/09/15 02:50:40;;;;;;;41.07;27.77;;;14.20;99.90;;;;;;4971476;28;20627;-69
2022/09/15 02:53:06;;;;;;;38.13;26.13;;;14.30;99.90;;;;;;4971670;28;20164;-69
2022/09/15 02:55:32;;;;;;;36.87;25.43;;;14.20;99.90;;;;;;4971578;28;20215;-69
2022/09/15 02:57:59;;;;;;;36.00;24.63;;;14.20;99.90;;;;;;4970170;28;20229;-69
2022/09/15 03:00:25;;;;;;;38.90;25.50;;;14.20;99.90;;;;;;4970290;28;20305;-68
2022/09/15 03:02:53;;;;;;;35.87;23.77;;;14.30;99.90;;;;;;4971263;28;20188;-68
2022/09/15 03:05:24;;;;;;;33.03;23.03;;;14.40;99.90;;;;;;4971568;28;20175;-69
2022/09/15 03:07:51;;;;;;;32.37;23.03;;;14.40;99.90;;;;;;4971390;28;20176;-70
2022/09/15 03:10:16;;;;;;;35.77;24.00;;;14.50;99.90;;;;;;4971346;28;20204;-69
2022/09/15 03:12:52;;;;;;;33.80;22.70;;;14.60;99.90;;;;;;4971216;28;20631;-70
2022/09/15 03:15:21;;;;;;;29.43;20.83;;;14.60;99.90;;;;;;4971135;28;20234;-70
2022/09/15 03:17:47;;;;;;;29.77;21.13;;;14.50;99.90;;;;;;4971632;28;20180;-69
2022/09/15 03:20:17;;;;;;;27.63;20.03;;;14.60;99.90;;;;;;4971443;28;20238;-69
2022/09/15 03:22:43;;;;;;;27.53;19.40;;;14.50;99.90;;;;;;4971120;28;20627;-69
2022/09/15 03:25:10;;;;;;;23.90;19.63;;;14.50;99.90;;;;;;4971553;28;20184;-69
2022/09/15 03:27:36;;;;;;;28.87;20.83;;;14.50;99.90;;;;;;4970705;28;20683;-69
2022/09/15 03:30:04;;;;;;;26.83;20.27;;;14.50;99.90;;;;;;4970720;28;20213;-69
2022/09/15 03:32:29;;;;;;;29.37;20.50;;;14.50;99.90;;;;;;4971341;28;20176;-70
2022/09/15 03:34:55;;;;;;;25.67;19.63;;;14.60;99.90;;;;;;4971148;28;20180;-70
2022/09/15 03:37:21;;;;;;;25.30;20.23;;;14.50;99.90;;;;;;4971355;28;20574;-70
2022/09/15 03:39:47;;;;;;;24.17;19.17;;;14.50;99.90;;;;;;4970720;28;20176;-70
2022/09/15 03:42:13;;;;;;;28.63;20.57;;;14.40;99.90;;;;;;4970416;28;20673;-70
2022/09/15 03:44:38;;;;;;;27.30;19.83;;;14.50;99.90;;;;;;4970948;28;20271;-69
2022/09/15 03:47:04;;;;;;;25.73;19.40;;;14.50;99.90;;;;;;4970749;28;20259;-69
2022/09/15 03:49:30;;;;;;;24.77;19.60;;;14.50;99.90;;;;;;4970999;28;20612;-69
2022/09/15 03:51:57;;;;;;;26.47;20.07;;;14.40;99.90;;;;;;4969691;28;20177;-69
2022/09/15 03:54:24;;;;;;;27.60;19.10;;;14.40;99.90;;;;;;4970666;28;20184;-69
2022/09/15 03:56:50;;;;;;;26.27;19.67;;;14.40;99.90;;;;;;4968539;28;20196;-69
2022/09/15 03:59:17;;;;;;;23.70;19.13;;;14.50;99.90;;;;;;4969541;28;20168;-69
2022/09/15 04:01:44;;;;;;;25.80;19.13;;;14.50;99.90;;;;;;4970514;28;20519;-69
2022/09/15 04:04:10;;;;;;;24.97;19.90;;;14.40;99.90;;;;;;4971068;28;20192;-69
2022/09/15 04:06:36;;;;;;;24.70;18.93;;;14.50;99.90;;;;;;4969605;28;20524;-69
2022/09/15 04:09:02;;;;;;;28.93;19.27;;;14.40;99.90;;;;;;4970487;28;20330;-68
2022/09/15 04:11:28;;;;;;;26.97;20.13;;;14.40;99.90;;;;;;4969846;28;20559;-69
2022/09/15 04:13:54;;;;;;;28.83;20.10;;;14.50;99.90;;;;;;4970679;28;20180;-69
2022/09/15 04:16:22;;;;;;;27.70;19.37;;;14.50;99.90;;;;;;4970583;28;20586;-69
2022/09/15 04:18:49;;;;;;;27.77;19.67;;;14.60;99.90;;;;;;4968818;28;20179;-69
2022/09/15 04:21:17;;;;;;;25.70;19.63;;;14.50;99.90;;;;;;4973967;28;20176;-69
2022/09/15 04:23:47;;;;;;;28.50;20.23;;;14.40;99.90;;;;;;4973573;28;20188;-69
2022/09/15 04:26:35;;;;;;;26.07;19.93;;;14.50;99.90;;;;;;4971686;28;20593;-68
2022/09/15 04:29:02;;;;;;;26.87;20.10;;;14.40;99.90;;;;;;4973274;28;20204;-70
2022/09/15 04:31:28;;;;;;;25.10;19.37;;;14.40;99.90;;;;;;4973219;28;20176;-68
2022/09/15 04:33:54;;;;;;;29.13;20.77;;;14.40;99.90;;;;;;4973774;28;20187;-70
2022/09/15 04:36:26;;;;;;;28.33;19.73;;;14.50;99.90;;;;;;4973452;28;20172;-69
2022/09/15 04:38:51;;;;;;;27.97;20.97;;;14.50;99.90;;;;;;4973333;28;20262;-69
2022/09/15 04:41:18;;;;;;;28.90;20.50;;;14.40;99.90;;;;;;4972746;28;20275;-70
2022/09/15 04:43:44;;;;;;;26.30;20.07;;;14.50;99.90;;;;;;4973105;28;20180;-70
2022/09/15 04:46:11;;;;;;;24.60;19.67;;;14.50;99.90;;;;;;4972987;28;20172;-70
2022/09/15 04:48:37;;;;;;;28.77;20.90;;;14.40;99.90;;;;;;4973128;28;20172;-70
2022/09/15 04:51:10;;;;;;;24.60;19.93;;;14.40;99.90;;;;;;4973008;28;20184;-70
2022/09/15 04:53:36;;;;;;;29.83;20.63;;;14.40;99.90;;;;;;4972948;28;20255;-70
2022/09/15 04:56:08;;;;;;;26.13;20.47;;;14.40;99.90;;;;;;4972765;28;20280;-70
2022/09/15 04:58:44;;;;;;;29.63;21.97;;;14.30;99.90;;;;;;4972943;28;20172;-70
2022/09/15 05:01:14;;;;;;;32.83;23.40;;;14.30;99.90;;;;;;4973205;28;20186;-69
2022/09/15 05:03:41;;;;;;;28.57;22.00;;;14.30;99.90;;;;;;4972719;28;20627;-69
2022/09/15 05:06:09;;;;;;;35.23;22.37;;;14.20;99.90;;;;;;4972742;28;20236;-69
2022/09/15 05:08:35;;;;;;;33.20;23.10;;;14.10;99.90;;;;;;4971967;28;20729;-69
2022/09/15 05:11:03;;;;;;;34.33;22.83;;;14.10;99.90;;;;;;4972403;28;20230;-69
2022/09/15 05:13:28;;;;;;;31.57;23.47;;;14.10;99.90;;;;;;4971938;28;20199;-70
2022/09/15 05:15:54;;;;;;;28.77;21.47;;;14.00;99.90;;;;;;4971964;28;20251;-69
2022/09/15 05:18:20;;;;;;;31.27;23.40;;;14.00;99.90;;;;;;4972093;28;20199;-70
2022/09/15 05:20:45;;;;;;;36.43;23.27;;;14.00;99.90;;;;;;4972374;28;20263;-70
2022/09/15 05:23:11;;;;;;;35.07;23.73;;;13.90;99.90;;;;;;4971578;28;20234;-69
2022/09/15 05:25:37;;;;;;;35.37;25.20;;;13.80;99.90;;;;;;4971902;28;20180;-69
2022/09/15 05:28:04;;;;;;;36.43;24.73;;;13.90;99.90;;;;;;4972112;28;20172;-70
2022/09/15 05:30:30;;;;;;;35.30;24.37;;;13.90;99.90;;;;;;4971510;28;20302;-69
2022/09/15 05:32:55;;;;;;;34.00;23.70;;;13.90;99.90;;;;;;4971145;28;20514;-70
2022/09/15 05:35:22;;;;;;;38.13;24.97;;;13.90;99.90;;;;;;4970855;28;20224;-69
2022/09/15 05:37:48;;;;;;;34.90;24.23;;;14.00;99.90;;;;;;4971884;28;20176;-70
2022/09/15 05:40:14;;;;;;;36.90;25.27;;;14.00;99.90;;;;;;4970731;28;20294;-71
2022/09/15 05:42:40;;;;;;;39.00;25.43;;;14.00;99.90;;;;;;4971534;28;20176;-70
2022/09/15 05:45:06;;;;;;;37.17;26.00;;;14.00;99.90;;;;;;4971537;28;20184;-69
2022/09/15 05:47:32;;;;;;;37.63;25.73;;;14.00;99.90;;;;;;4971188;28;20267;-70
2022/09/15 05:49:57;;;;;;;36.60;26.43;;;14.00;99.90;;;;;;4970715;28;20254;-69
2022/09/15 05:52:23;;;;;;;39.47;26.93;;;14.00;99.90;;;;;;4970474;28;20184;-70
2022/09/15 05:54:48;;;;;;;35.60;24.50;;;14.00;99.90;;;;;;4970578;28;20184;-69
2022/09/15 05:57:14;;;;;;;37.07;25.93;;;14.10;99.90;;;;;;4971398;28;20176;-71
2022/09/15 05:59:40;;;;;;;35.93;24.87;;;14.30;99.90;;;;;;4970163;28;20179;-71
2022/09/15 06:02:08;;;;;;;35.00;23.97;;;14.40;99.90;;;;;;4971076;28;20233;-70
2022/09/15 06:04:34;;;;;;;34.90;24.30;;;14.50;99.90;;;;;;4970202;28;20179;-70
2022/09/15 06:06:59;;;;;;;33.37;24.50;;;14.60;99.90;;;;;;4970911;28;20538;-69
2022/09/15 06:09:25;;;;;;;32.77;24.43;;;14.80;99.90;;;;;;4970281;28;20200;-70
2022/09/15 06:11:51;;;;;;;33.23;23.20;;;15.10;99.90;;;;;;4970415;28;20210;-70
2022/09/15 06:14:16;;;;;;;29.53;22.03;;;15.50;99.90;;;;;;4970940;28;20575;-69
2022/09/15 06:16:42;;;;;;;23.97;19.67;;;16.00;99.90;;;;;;4969483;28;20228;-69
2022/09/15 06:19:07;;;;;;;24.97;21.87;;;16.20;99.90;;;;;;4968921;28;20183;-69
2022/09/15 06:21:33;;;;;;;27.13;20.07;;;16.50;99.90;;;;;;4970001;28;20262;-70
2022/09/15 06:24:02;;;;;;;23.73;19.50;;;16.80;99.90;;;;;;4969936;28;20714;-70
2022/09/15 06:26:28;;;;;;;25.10;18.83;;;17.00;98.50;;;;;;4969462;28;20191;-70
2022/09/15 06:28:56;;;;;;;28.60;20.23;;;17.10;90.10;;;;;;4969704;28;20542;-70
2022/09/15 06:31:23;;;;;;;31.03;21.10;;;17.20;77.60;;;;;;4970587;28;20262;-69
2022/09/15 06:33:50;;;;;;;25.80;18.47;;;17.40;74.50;;;;;;4970157;28;20176;-69
2022/09/15 06:36:17;;;;;;;28.03;19.30;;;17.80;58.40;;;;;;4969953;28;20206;-69
2022/09/15 06:38:43;;;;;;;24.27;18.57;;;18.10;47.60;;;;;;4970782;28;20654;-70
2022/09/15 06:41:10;;;;;;;26.30;17.92;;;18.90;38.40;;;;;;4970241;28;20176;-71
2022/09/15 06:43:37;;;;;;;22.33;17.42;;;20.30;1.00;;;;;;4970049;28;20631;-69
2022/09/15 06:46:10;;;;;;;22.55;16.38;;;20.60;1.00;;;;;;4969161;28;20187;-70
2022/09/15 06:48:37;;;;;;;21.48;16.77;;;20.70;1.00;;;;;;4970419;28;20200;-71
2022/09/15 06:51:04;;;;;;;21.90;18.27;;;20.50;1.00;;;;;;4968652;28;20188;-69
2022/09/15 06:53:32;;;;;;;22.13;18.27;;;20.30;1.00;;;;;;4970322;28;20168;-70
2022/09/15 06:56:02;;;;;;;23.77;18.77;;;19.90;1.00;;;;;;4968587;28;20658;-71
2022/09/15 06:58:28;;;;;;;27.00;18.73;;;19.70;1.00;;;;;;5016122;28;20263;-70
2022/09/15 07:00:54;;;;;;;24.08;18.58;;;19.40;1.00;;;;;;5067383;28;20234;-68
2022/09/15 07:03:19;;;;;;;24.48;18.45;;;19.40;1.00;;;;;;5070750;28;20196;-70
2022/09/15 07:05:46;;;;;;;23.55;18.85;;;19.40;1.00;;;;;;4980860;28;20284;-69
2022/09/15 07:08:12;;;;;;;21.50;18.00;;;19.40;1.00;;;;;;4969473;28;20263;-70
2022/09/15 07:10:37;;;;;;;25.70;17.40;;;19.90;1.00;;;;;;4969386;28;20685;-70
2022/09/15 07:13:03;;;;;;;20.42;17.48;;;20.00;1.00;;;;;;4966378;28;20289;-69
2022/09/15 07:15:30;;;;;;;19.95;17.73;;;20.20;1.00;;;;;;5018667;28;20212;-70
2022/09/15 07:17:55;;;;;;;24.42;17.88;;;20.40;1.00;;;;;;5070711;28;20294;-70
2022/09/15 07:20:21;;;;;;;20.95;18.17;;;20.80;1.00;;;;;;5070893;28;20172;-70
2022/09/15 07:22:47;;;;;;;20.90;17.73;;;20.70;1.00;;;;;;5026524;28;20541;-70
2022/09/15 07:25:13;;;;;;;26.67;17.90;;;20.80;1.00;;;;;;4974037;28;20184;-70
2022/09/15 07:27:38;;;;;;;23.77;17.25;;;20.60;1.00;;;;;;5028028;28;20174;-70
2022/09/15 07:30:07;;;;;;;22.38;18.33;;;20.40;1.00;;;;;;4970847;28;20212;-70
2022/09/15 07:32:33;;;;;;;21.48;18.83;;;19.90;1.00;;;;;;4968737;28;20210;-70
2022/09/15 07:34:58;;;;;;;24.13;18.58;;;19.70;1.00;;;;;;4970121;28;20176;-69
2022/09/15 07:37:24;;;;;;;25.98;19.05;;;19.50;1.00;;;;;;4969542;28;20168;-71
2022/09/15 07:39:49;;;;;;;28.23;19.25;;;19.50;1.00;;;;;;4969453;28;20632;-70
2022/09/15 07:42:15;;;;;;;23.55;18.67;;;19.40;1.00;;;;;;4967042;28;20183;-70
2022/09/15 07:44:40;;;;;;;21.52;17.80;;;19.40;1.00;;;;;;4969456;28;20172;-69
2022/09/15 07:47:06;;;;;;;23.55;19.40;;;19.30;1.00;;;;;;4969069;28;20256;-70
2022/09/15 07:49:31;;;;;;;25.67;18.13;;;19.10;1.00;;;;;;4967014;28;20261;-71
2022/09/15 07:51:57;;;;;;;28.35;19.00;;;19.20;3.10;;;;;;4967833;28;20550;-70
2022/09/15 07:54:23;;;;;;;23.67;18.30;;;19.10;8.90;;;;;;4970423;28;20542;-70
2022/09/15 07:56:48;;;;;;;28.42;20.08;;;19.10;11.30;;;;;;4971050;28;20251;-70
2022/09/15 07:59:14;;;;;;;27.45;19.48;;;19.10;15.50;;;;;;4971601;28;20188;-70
2022/09/15 08:01:39;;;;;;;24.95;18.23;;;19.20;16.30;;;;;;4972264;28;20701;-69
2022/09/15 08:04:05;;;;;;;20.92;18.33;;;19.40;8.80;;;;;;4973090;28;20168;-70
2022/09/15 08:06:30;;;;;;;21.95;17.42;;;19.50;2.90;;;;;;4972254;28;20209;-71
2022/09/15 08:08:56;;;;;;;26.48;17.50;;;19.70;1.00;;;;;;4972385;28;20176;-71
2022/09/15 08:11:22;;;;;;;22.60;18.38;;;20.00;1.00;;;;;;4973387;28;20180;-73
2022/09/15 08:13:49;;;;;;;24.63;18.02;;;20.20;1.00;;;;;;4973625;28;20211;-72
2022/09/15 08:16:20;;;;;;;20.55;15.95;;;20.30;1.00;;;;;;4973136;28;20333;-72
2022/09/15 08:18:47;;;;;;;25.17;17.92;;;20.30;1.00;;;;;;4972963;28;20284;-71
2022/09/15 08:21:16;;;;;;;24.67;17.90;;;20.40;1.00;;;;;;4971993;28;20584;-73
2022/09/15 08:23:43;;;;;;;22.27;17.48;;;20.60;1.00;;;;;;4973100;28;20245;-71
2022/09/15 08:26:10;;;;;;;23.65;18.52;;;20.70;1.00;;;;;;4974833;28;20605;-75
2022/09/15 08:28:37;;;;;;;24.33;17.38;;;20.60;1.00;;;;;;4961998;28;20188;-70
2022/09/15 08:31:05;;;;;;;22.20;17.20;;;20.70;1.00;;;;;;4970572;28;20203;-70
2022/09/15 08:33:31;;;;;;;22.85;15.65;;;21.10;1.00;;;;;;4952992;28;20234;-71
2022/09/15 08:36:04;;;;;;;20.50;16.45;;;20.90;1.00;;;;;;4953119;28;20234;-70
2022/09/15 08:38:30;;;;;;;22.45;15.57;;;21.00;1.00;;;;;;4953362;28;20267;-69
2022/09/15 08:41:02;;;;;;;22.85;16.45;;;21.30;1.00;;;;;;4952699;28;20527;-70
2022/09/15 08:43:34;;;;;;;19.67;15.88;;;21.50;1.00;;;;;;4953108;28;20195;-71
2022/09/15 08:46:03;;;;;;;20.30;14.63;;;21.70;1.00;;;;;;4953012;28;20173;-72
2022/09/15 08:48:48;;;;;;;20.08;15.25;;;21.50;1.00;;;;;;4958552;28;20172;-72
2022/09/15 08:51:26;;;;;;;21.25;15.18;;;21.70;1.00;;;;;;4972656;28;20281;-70
2022/09/15 08:54:00;;;;;;;20.52;15.50;;;21.60;1.00;;;;;;4972076;28;20164;-70
2022/09/15 08:56:27;;;;;;;19.25;14.27;;;21.70;1.00;;;;;;4972262;28;20185;-71
2022/09/15 08:58:54;;;;;;;19.17;14.93;;;21.60;1.00;;;;;;4971942;28;20243;-71
2022/09/15 09:01:38;;;;;;;22.73;14.45;;;21.60;1.00;;;;;;4972140;28;20202;-71
2022/09/15 09:04:09;;;;;;;19.10;15.05;;;21.80;1.00;;;;;;4972741;28;20172;-71
2022/09/15 09:06:54;;;;;;;14.88;13.30;;;21.40;1.00;;;;;;4971642;28;20169;-70
2022/09/15 09:10:05;;;;;;;15.50;12.63;;;20.70;1.00;;;;;;4975910;28;20226;-70
2022/09/15 09:12:47;;;;;;;17.30;13.43;;;20.50;1.00;;;;;;4926943;28;20188;-70
2022/09/15 09:15:39;;;;;;;16.48;12.85;;;20.30;1.00;;;;;;4930360;28;20254;-70
2022/09/15 09:18:23;;;;;;;18.58;12.90;;;19.90;1.00;;;;;;4931843;28;20197;-70
2022/09/15 09:21:07;;;;;;;15.73;12.65;;;19.80;4.00;;;;;;5007296;28;20197;-70
2022/09/15 09:23:47;;;;;;;15.00;11.18;;;19.90;5.80;;;;;;4983489;28;20259;-70
2022/09/15 09:26:14;;;;;;;17.83;12.18;;;19.80;5.40;;;;;;4937661;28;20182;-72
2022/09/15 09:28:48;;;;;;;15.35;11.05;;;20.10;10.20;;;;;;4938020;28;20200;-72
2022/09/15 09:31:20;;;;;;;18.83;12.27;;;20.50;1.00;;;;;;4930460;29;20196;-73
2022/09/15 09:33:51;;;;;;;14.30;11.57;;;20.60;1.00;;;;;;4931219;29;20166;-71
2022/09/15 09:36:17;;;;;;;18.70;12.40;;;20.60;1.00;;;;;;4930404;28;20301;-72
2022/09/15 09:38:45;;;;;;;14.38;11.85;;;21.00;1.00;;;;;;4955075;28;20214;-73
2022/09/15 09:41:18;;;;;;;12.95;11.18;;;21.40;1.00;;;;;;5030470;28;20196;-71
2022/09/15 09:43:46;;;;;;;14.05;11.48;;;22.00;1.00;;;;;;4991181;28;20186;-70
2022/09/15 09:46:15;;;;;;;17.98;10.80;;;22.70;1.00;;;;;;4985585;28;20176;-71
2022/09/15 09:48:55;;;;;;;14.15;10.48;;;23.10;1.00;;;;;;4974259;28;20258;-73
2022/09/15 09:51:40;;;;;;;13.95;9.95;;;23.10;1.00;;;;;;4957214;28;21115;-74
2022/09/15 09:54:11;;;;;;;8.95;8.05;;;23.40;1.00;;;;;;4974207;28;20242;-74
2022/09/15 09:56:38;;;;;;;8.88;7.55;;;23.40;1.00;;;;;;4970495;28;20179;-73
2022/09/15 09:59:03;;;;;;;9.02;6.63;;;23.60;1.00;;;;;;4969946;28;20302;-73
2022/09/15 10:01:30;;;;;;;10.52;7.50;;;24.00;1.00;;;;;;4969555;28;20385;-72
2022/09/15 10:04:09;;;;;;;11.68;7.40;;;24.10;99.90;;;;;;4969660;28;20222;-73
2022/09/15 10:06:35;;;;;;;8.52;5.80;;;24.70;1.00;;;;;;4970461;28;20179;-70
2022/09/15 10:09:07;;;;;;;7.80;4.88;;;24.80;1.00;;;;;;4969153;28;20180;-75
2022/09/15 10:11:40;;;;;;;7.45;5.00;;;24.70;1.00;;;;;;4970808;28;20643;-75
2022/09/15 10:14:14;;;;;;;8.25;5.75;;;24.40;1.00;;;;;;4969804;28;20713;-72
2022/09/15 10:16:39;;;;;;;8.45;5.45;;;24.40;1.00;;;;;;4980299;28;20344;-71
2022/09/15 10:19:05;;;;;;;7.28;4.70;;;23.70;54.70;;;;;;4973016;28;20683;-71
2022/09/15 10:21:31;;;;;;;11.68;4.50;;;23.80;99.90;;;;;;4988340;28;20719;-75
2022/09/15 10:23:56;;;;;;;8.63;3.30;;;23.50;1.00;;;;;;4981764;28;20187;-73
2022/09/15 10:26:31;;;;;;;7.30;3.20;;;23.40;99.90;;;;;;4991793;28;20518;-74
2022/09/15 10:29:13;;;;;;;5.35;3.20;;;22.90;99.90;;;;;;4971092;28;20261;-73
2022/09/15 10:31:40;;;;;;;6.50;3.50;;;23.40;1.00;;;;;;4970557;28;20532;-74
2022/09/15 10:34:26;;;;;;;5.30;3.25;;;23.40;1.00;;;;;;4970836;28;20179;-73
2022/09/15 10:36:57;;;;;;;5.03;3.05;;;23.10;99.90;;;;;;4970890;28;20172;-71
2022/09/15 10:39:42;;;;;;;7.68;3.63;;;23.00;1.00;;;;;;4971697;28;20180;-73
2022/09/15 10:42:28;;;;;;;8.00;3.50;;;22.80;1.00;;;;;;4969186;28;20168;-71
2022/09/15 10:45:04;;;;;;;3.97;3.10;;;23.00;99.90;;;;;;4970500;28;20677;-71
2022/09/15 10:47:50;;;;;;;8.20;3.63;;;23.40;1.00;;;;;;4970586;28;20172;-72
2022/09/15 10:50:28;;;;;;;9.55;3.63;;;24.40;1.00;;;;;;4969548;28;20224;-73
2022/09/15 10:53:17;;;;;;;6.43;3.08;;;24.40;99.90;;;;;;5006596;28;20194;-74
2022/09/15 10:55:51;;;;;;;4.30;2.78;;;24.50;99.90;;;;;;4976468;28;20333;-74
2022/09/15 10:58:30;;;;;;;8.32;2.90;;;24.90;1.00;;;;;;5024818;28;20619;-73
2022/09/15 11:01:31;;;;;;;5.72;3.00;;;25.00;1.00;;;;;;4972797;28;20232;-74
2022/09/15 11:04:36;;;;;;;4.40;2.70;;;24.70;1.00;;;;;;5022605;28;20188;-73
2022/09/15 11:07:22;;;;;;;3.58;2.22;;;24.60;54.80;;;;;;5017167;28;20780;-74
2022/09/15 11:10:17;;;;;;;3.45;2.63;;;23.60;1.00;;;;;;5025871;28;20300;-74
2022/09/15 11:13:04;;;;;;;4.75;2.47;;;23.60;1.00;;;;;;5026109;28;20248;-73
2022/09/15 11:15:53;;;;;;;5.18;2.83;;;23.00;24.90;;;;;;5026213;28;20673;-71
2022/09/15 11:18:27;;;;;;;5.28;2.63;;;22.70;1.00;;;;;;5026110;28;20220;-73
2022/09/15 11:21:32;;;;;;;4.35;2.78;;;22.30;1.00;;;;;;5026217;28;20178;-74
2022/09/15 11:24:10;;;;;;;5.75;2.65;;;22.10;99.90;;;;;;5026176;28;20224;-73
2022/09/15 11:26:51;;;;;;;6.55;2.80;;;21.50;1.00;;;;;;5009282;28;20205;-75
2022/09/15 11:29:29;;;;;;;4.70;2.70;;;21.50;99.90;;;;;;5027148;28;20213;-75
2022/09/15 11:32:03;;;;;;;5.18;2.80;;;21.10;1.00;;;;;;5033631;28;20197;-70
2022/09/15 11:34:40;;;;;;;6.13;2.75;;;20.80;99.90;;;;;;5030505;28;20213;-71
2022/09/15 11:37:17;;;;;;;6.43;3.22;;;20.70;1.00;;;;;;5031124;28;20165;-72
2022/09/15 11:40:06;;;;;;;6.28;2.95;;;20.60;1.00;;;;;;5015276;28;20223;-72
2022/09/15 11:42:47;;;;;;;11.10;2.65;;;20.20;1.00;;;;;;4972703;28;20926;-70
2022/09/15 11:45:18;;;;;;;8.80;2.47;;;19.80;1.00;;;;;;4974376;28;20643;-70
2022/09/15 11:47:49;;;;;;;4.63;1.90;;;19.40;1.00;;;;;;4972994;28;20172;-72
2022/09/15 11:50:28;;;;;;;2.53;1.75;;;19.20;1.00;;;;;;4977149;28;20319;-71
2022/09/15 11:52:58;;;;;;;6.20;2.13;;;19.00;1.00;;;;;;5010156;28;20165;-71
2022/09/15 11:55:46;;;;;;;7.22;2.50;;;19.10;1.00;;;;;;5045399;28;20214;-69
2022/09/15 11:58:52;;;;;;;7.03;2.20;;;19.20;1.00;;;;;;4979851;28;20172;-70
2022/09/15 12:01:54;;;;;;;3.22;1.88;;;19.40;1.00;;;;;;4993106;28;20207;-72
2022/09/15 12:04:39;;;;;;;5.88;1.60;;;19.50;1.00;;;;;;5027687;28;20200;-72
2022/09/15 12:07:12;;;;;;;5.38;2.15;;;19.30;1.00;;;;;;4953696;28;20219;-71
2022/09/15 12:09:39;;;;;;;5.63;2.55;;;19.10;1.00;;;;;;4952562;28;20207;-71
2022/09/15 12:12:15;;;;;;;7.90;2.08;;;19.00;1.00;;;;;;4953420;28;20169;-70
2022/09/15 12:14:43;;;;;;;6.55;1.90;;;19.10;1.00;;;;;;4953374;28;20177;-71
2022/09/15 12:17:34;;;;;;;3.38;1.60;;;19.00;1.00;;;;;;4952942;28;20320;-72
2022/09/15 12:20:12;;;;;;;3.83;1.60;;;18.90;1.00;;;;;;4983297;28;20261;-72
2022/09/15 12:23:15;;;;;;;4.05;1.45;;;19.10;1.00;;;;;;4953247;29;20169;-71
2022/09/15 12:26:13;;;;;;;8.00;1.90;;;19.30;1.00;;;;;;4953312;29;20179;-71
2022/09/15 12:29:01;;;;;;;4.35;1.67;;;19.60;1.00;;;;;;4953387;28;20230;-71
2022/09/15 12:31:32;;;;;;;6.30;1.85;;;20.00;1.00;;;;;;4972001;28;20168;-70
2022/09/15 12:34:01;;;;;;;5.07;2.40;;;20.00;1.00;;;;;;5056417;28;20180;-71
2022/09/15 12:36:33;;;;;;;2.78;1.40;;;20.10;1.00;;;;;;4972866;28;20282;-71
2022/09/15 12:39:00;;;;;;;3.22;1.50;;;20.10;1.00;;;;;;4970859;28;20172;-71
2022/09/15 12:41:27;;;;;;;3.75;1.20;;;20.20;1.00;;;;;;4970625;28;20164;-71
2022/09/15 12:43:57;;;;;;;5.57;1.70;;;20.50;1.00;;;;;;4971872;28;20180;-71
2022/09/15 12:46:23;;;;;;;6.30;1.67;;;20.60;99.90;;;;;;4972135;28;20168;-71
2022/09/15 12:48:49;;;;;;;5.65;2.20;;;20.80;99.90;;;;;;4972260;28;20183;-70
2022/09/15 12:51:25;;;;;;;5.22;2.10;;;20.90;99.90;;;;;;4971998;28;20219;-72
2022/09/15 12:54:03;;;;;;;4.38;1.30;;;21.10;48.80;;;;;;4972094;28;20199;-71
2022/09/15 12:56:31;;;;;;;2.78;1.40;;;21.00;99.90;;;;;;4971909;28;20599;-71